sensor_id;sensor_type;location;lat;lon;timestamp;P1;durP1;ratioP1;P2;durP2;ratioP2
3541;SDS011;1785;47.388;8.538;2024-03-23T00:51:38;4.17;;;3.80;;
3541;SDS011;1785;47.388;8.538;2024-03-23T00:54:05;9.20;;;4.10;;
3541;SDS011;1785;47.388;8.538;2024-03-23T00:56:31;5.67;;;3.67;;
3541;SDS011;1785;47.388;8.538;2024-03-23T00:58:57;6.57;;;3.70;;
3541;SDS011;1785;47.388;8.538;2024-03-23T01:01:23;3.73;;;3.43;;
3541;SDS011;1785;47.388;8.538;2024-03-23T01:03:49;3.93;;;3.50;;
3541;SDS011;1785;47.388;8.538;2024-03-23T01:06:15;4.90;;;3.30;;
3541;SDS011;1785;47.388;8.538;2024-03-23T01:08:41;3.63;;;3.33;;
3541;SDS011;1785;47.388;8.538;2024-03-23T01:11:07;3.53;;;3.23;;
3541;SDS011;1785;47.388;8.538;2024-03-23T01:13:33;3.90;;;3.50;;
3541;SDS011;1785;47.388;8.538;2024-03-23T01:15:59;4.60;;;3.60;;
3541;SDS011;1785;47.388;8.538;2024-03-23T01:18:25;3.27;;;3.07;;
3541;SDS011;1785;47.388;8.538;2024-03-23T01:20:51;3.67;;;3.37;;
3541;SDS011;1785;47.388;8.538;2024-03-23T01:23:17;3.00;;;2.80;;
3541;SDS011;1785;47.388;8.538;2024-03-23T01:25:44;4.60;;;3.77;;
3541;SDS011;1785;47.388;8.538;2024-03-23T01:28:17;4.00;;;3.70;;
3541;SDS011;1785;47.388;8.538;2024-03-23T01:30:43;4.27;;;3.20;;
3541;SDS011;1785;47.388;8.538;2024-03-23T01:33:09;5.03;;;3.33;;
3541;SDS011;1785;47.388;8.538;2024-03-23T01:35:35;3.47;;;3.17;;
3541;SDS011;1785;47.388;8.538;2024-03-23T01:38:01;3.40;;;3.10;;
3541;SDS011;1785;47.388;8.538;2024-03-23T01:40:27;3.30;;;2.43;;
3541;SDS011;1785;47.388;8.538;2024-03-23T01:42:57;3.70;;;3.40;;
3541;SDS011;1785;47.388;8.538;2024-03-23T01:45:23;4.50;;;3.20;;
3541;SDS011;1785;47.388;8.538;2024-03-23T01:47:50;3.80;;;3.50;;
3541;SDS011;1785;47.388;8.538;2024-03-23T01:50:17;4.67;;;3.50;;
3541;SDS011;1785;47.388;8.538;2024-03-23T01:52:44;3.97;;;3.20;;
3541;SDS011;1785;47.388;8.538;2024-03-23T01:55:10;3.07;;;2.87;;
3541;SDS011;1785;47.388;8.538;2024-03-23T01:57:37;2.90;;;2.60;;
3541;SDS011;1785;47.388;8.538;2024-03-23T02:00:05;3.47;;;2.77;;
3541;SDS011;1785;47.388;8.538;2024-03-23T02:02:31;3.33;;;3.03;;
3541;SDS011;1785;47.388;8.538;2024-03-23T02:04:57;3.73;;;3.43;;
3541;SDS011;1785;47.388;8.538;2024-03-23T02:07:23;3.20;;;2.73;;
3541;SDS011;1785;47.388;8.538;2024-03-23T02:09:50;5.80;;;2.97;;
3541;SDS011;1785;47.388;8.538;2024-03-23T02:12:16;3.43;;;3.03;;
3541;SDS011;1785;47.388;8.538;2024-03-23T02:14:43;2.87;;;2.60;;
3541;SDS011;1785;47.388;8.538;2024-03-23T02:17:09;2.90;;;2.70;;
3541;SDS011;1785;47.388;8.538;2024-03-23T02:19:36;3.73;;;3.10;;
3541;SDS011;1785;47.388;8.538;2024-03-23T02:22:03;5.20;;;3.60;;
3541;SDS011;1785;47.388;8.538;2024-03-23T02:24:30;3.50;;;2.70;;
3541;SDS011;1785;47.388;8.538;2024-03-23T02:26:55;4.57;;;3.40;;
3541;SDS011;1785;47.388;8.538;2024-03-23T02:29:22;3.80;;;3.47;;
3541;SDS011;1785;47.388;8.538;2024-03-23T02:31:48;3.53;;;3.23;;
3541;SDS011;1785;47.388;8.538;2024-03-23T02:34:14;3.60;;;3.30;;
3541;SDS011;1785;47.388;8.538;2024-03-23T02:36:39;3.50;;;2.63;;
3541;SDS011;1785;47.388;8.538;2024-03-23T02:39:06;5.17;;;3.60;;
3541;SDS011;1785;47.388;8.538;2024-03-23T02:41:32;3.33;;;3.13;;
3541;SDS011;1785;47.388;8.538;2024-03-23T02:43:58;3.63;;;3.33;;
3541;SDS011;1785;47.388;8.538;2024-03-23T02:46:24;3.20;;;2.90;;
3541;SDS011;1785;47.388;8.538;2024-03-23T02:48:50;3.37;;;3.07;;
3541;SDS011;1785;47.388;8.538;2024-03-23T02:51:16;4.73;;;3.23;;
3541;SDS011;1785;47.388;8.538;2024-03-23T02:53:42;4.27;;;3.90;;
3541;SDS011;1785;47.388;8.538;2024-03-23T02:56:08;4.50;;;4.10;;
3541;SDS011;1785;47.388;8.538;2024-03-23T02:58:35;3.83;;;3.53;;
3541;SDS011;1785;47.388;8.538;2024-03-23T03:01:01;3.67;;;3.37;;
3541;SDS011;1785;47.388;8.538;2024-03-23T03:03:27;4.37;;;3.97;;
3541;SDS011;1785;47.388;8.538;2024-03-23T03:05:54;5.07;;;3.40;;
3541;SDS011;1785;47.388;8.538;2024-03-23T03:08:21;5.53;;;4.20;;
3541;SDS011;1785;47.388;8.538;2024-03-23T03:10:47;4.13;;;2.93;;
3541;SDS011;1785;47.388;8.538;2024-03-23T03:13:13;4.37;;;3.70;;
3541;SDS011;1785;47.388;8.538;2024-03-23T03:15:40;3.70;;;3.40;;
3541;SDS011;1785;47.388;8.538;2024-03-23T03:18:06;6.83;;;4.00;;
3541;SDS011;1785;47.388;8.538;2024-03-23T03:20:32;4.47;;;4.07;;
3541;SDS011;1785;47.388;8.538;2024-03-23T03:22:59;12.43;;;4.03;;
3541;SDS011;1785;47.388;8.538;2024-03-23T03:25:25;3.70;;;3.40;;
3541;SDS011;1785;47.388;8.538;2024-03-23T03:27:51;4.30;;;3.70;;
3541;SDS011;1785;47.388;8.538;2024-03-23T03:30:17;9.50;;;4.13;;
3541;SDS011;1785;47.388;8.538;2024-03-23T03:32:44;6.33;;;3.83;;
3541;SDS011;1785;47.388;8.538;2024-03-23T03:35:10;4.63;;;2.93;;
3541;SDS011;1785;47.388;8.538;2024-03-23T03:37:36;3.33;;;3.13;;
3541;SDS011;1785;47.388;8.538;2024-03-23T03:40:02;4.40;;;3.10;;
3541;SDS011;1785;47.388;8.538;2024-03-23T03:42:28;3.30;;;3.00;;
3541;SDS011;1785;47.388;8.538;2024-03-23T03:44:54;3.50;;;3.20;;
3541;SDS011;1785;47.388;8.538;2024-03-23T03:47:20;5.03;;;3.33;;
3541;SDS011;1785;47.388;8.538;2024-03-23T03:49:47;4.53;;;3.00;;
3541;SDS011;1785;47.388;8.538;2024-03-23T03:52:13;2.50;;;2.30;;
3541;SDS011;1785;47.388;8.538;2024-03-23T03:54:39;4.23;;;3.20;;
3541;SDS011;1785;47.388;8.538;2024-03-23T03:57:05;3.33;;;2.63;;
3541;SDS011;1785;47.388;8.538;2024-03-23T03:59:31;3.63;;;2.57;;
3541;SDS011;1785;47.388;8.538;2024-03-23T04:01:57;3.60;;;3.30;;
3541;SDS011;1785;47.388;8.538;2024-03-23T04:04:23;3.23;;;2.27;;
3541;SDS011;1785;47.388;8.538;2024-03-23T04:06:50;3.40;;;3.10;;
3541;SDS011;1785;47.388;8.538;2024-03-23T04:09:23;4.80;;;2.80;;
3541;SDS011;1785;47.388;8.538;2024-03-23T04:11:49;2.63;;;2.43;;
3541;SDS011;1785;47.388;8.538;2024-03-23T04:14:15;3.40;;;2.73;;
3541;SDS011;1785;47.388;8.538;2024-03-23T04:16:40;3.70;;;3.03;;
3541;SDS011;1785;47.388;8.538;2024-03-23T04:19:07;3.27;;;2.97;;
3541;SDS011;1785;47.388;8.538;2024-03-23T04:21:33;3.30;;;3.00;;
3541;SDS011;1785;47.388;8.538;2024-03-23T04:24:00;3.70;;;3.30;;
3541;SDS011;1785;47.388;8.538;2024-03-23T04:26:25;3.20;;;2.87;;
3541;SDS011;1785;47.388;8.538;2024-03-23T04:28:52;3.00;;;2.80;;
3541;SDS011;1785;47.388;8.538;2024-03-23T04:31:18;2.90;;;2.70;;
3541;SDS011;1785;47.388;8.538;2024-03-23T04:33:44;3.63;;;2.90;;
3541;SDS011;1785;47.388;8.538;2024-03-23T04:36:10;3.27;;;2.97;;
3541;SDS011;1785;47.388;8.538;2024-03-23T04:38:36;3.03;;;2.73;;
3541;SDS011;1785;47.388;8.538;2024-03-23T04:41:03;3.23;;;2.93;;
3541;SDS011;1785;47.388;8.538;2024-03-23T04:43:29;5.60;;;2.53;;
3541;SDS011;1785;47.388;8.538;2024-03-23T04:45:56;4.23;;;2.30;;
3541;SDS011;1785;47.388;8.538;2024-03-23T04:48:22;3.13;;;2.93;;
3541;SDS011;1785;47.388;8.538;2024-03-23T04:50:48;3.63;;;2.47;;
3541;SDS011;1785;47.388;8.538;2024-03-23T04:53:14;4.37;;;3.57;;
3541;SDS011;1785;47.388;8.538;2024-03-23T04:55:41;6.23;;;2.67;;
3541;SDS011;1785;47.388;8.538;2024-03-23T04:58:08;3.43;;;3.13;;
3541;SDS011;1785;47.388;8.538;2024-03-23T05:00:34;4.30;;;2.83;;
3541;SDS011;1785;47.388;8.538;2024-03-23T05:03:00;3.20;;;2.90;;
3541;SDS011;1785;47.388;8.538;2024-03-23T05:05:26;4.07;;;3.10;;
3541;SDS011;1785;47.388;8.538;2024-03-23T05:07:52;3.13;;;2.67;;
3541;SDS011;1785;47.388;8.538;2024-03-23T05:10:18;2.80;;;2.60;;
3541;SDS011;1785;47.388;8.538;2024-03-23T05:12:44;3.10;;;2.67;;
3541;SDS011;1785;47.388;8.538;2024-03-23T05:15:11;3.33;;;3.03;;
3541;SDS011;1785;47.388;8.538;2024-03-23T05:17:37;4.10;;;2.93;;
3541;SDS011;1785;47.388;8.538;2024-03-23T05:20:04;2.90;;;2.70;;
3541;SDS011;1785;47.388;8.538;2024-03-23T05:22:34;3.53;;;2.60;;
3541;SDS011;1785;47.388;8.538;2024-03-23T05:25:00;4.63;;;3.00;;
3541;SDS011;1785;47.388;8.538;2024-03-23T05:27:29;3.27;;;2.97;;
3541;SDS011;1785;47.388;8.538;2024-03-23T05:29:55;3.30;;;3.00;;
3541;SDS011;1785;47.388;8.538;2024-03-23T05:32:22;4.43;;;3.77;;
3541;SDS011;1785;47.388;8.538;2024-03-23T05:34:48;4.00;;;3.60;;
3541;SDS011;1785;47.388;8.538;2024-03-23T05:37:15;4.80;;;4.40;;
3541;SDS011;1785;47.388;8.538;2024-03-23T05:39:41;5.80;;;4.10;;
3541;SDS011;1785;47.388;8.538;2024-03-23T05:42:07;9.30;;;4.77;;
3541;SDS011;1785;47.388;8.538;2024-03-23T05:44:33;5.43;;;4.40;;
3541;SDS011;1785;47.388;8.538;2024-03-23T05:46:59;4.80;;;4.33;;
3541;SDS011;1785;47.388;8.538;2024-03-23T05:49:26;6.03;;;5.40;;
3541;SDS011;1785;47.388;8.538;2024-03-23T05:51:52;5.27;;;4.67;;
3541;SDS011;1785;47.388;8.538;2024-03-23T05:54:18;5.60;;;5.10;;
3541;SDS011;1785;47.388;8.538;2024-03-23T05:56:44;6.50;;;4.70;;
3541;SDS011;1785;47.388;8.538;2024-03-23T05:59:10;5.10;;;4.80;;
3541;SDS011;1785;47.388;8.538;2024-03-23T06:01:36;5.30;;;4.90;;
3541;SDS011;1785;47.388;8.538;2024-03-23T06:04:02;4.83;;;4.50;;
3541;SDS011;1785;47.388;8.538;2024-03-23T06:06:29;6.23;;;5.20;;
3541;SDS011;1785;47.388;8.538;2024-03-23T06:08:55;5.60;;;4.67;;
3541;SDS011;1785;47.388;8.538;2024-03-23T06:11:21;6.00;;;4.93;;
3541;SDS011;1785;47.388;8.538;2024-03-23T06:13:47;5.37;;;4.87;;
3541;SDS011;1785;47.388;8.538;2024-03-23T06:16:13;5.90;;;4.97;;
3541;SDS011;1785;47.388;8.538;2024-03-23T06:18:39;5.37;;;4.63;;
3541;SDS011;1785;47.388;8.538;2024-03-23T06:21:08;5.33;;;4.83;;
3541;SDS011;1785;47.388;8.538;2024-03-23T06:23:39;5.77;;;5.20;;
3541;SDS011;1785;47.388;8.538;2024-03-23T06:26:06;8.50;;;6.00;;
3541;SDS011;1785;47.388;8.538;2024-03-23T06:28:31;8.23;;;6.20;;
3541;SDS011;1785;47.388;8.538;2024-03-23T06:30:58;6.60;;;6.03;;
3541;SDS011;1785;47.388;8.538;2024-03-23T06:33:23;6.50;;;5.90;;
3541;SDS011;1785;47.388;8.538;2024-03-23T06:35:50;7.43;;;5.70;;
3541;SDS011;1785;47.388;8.538;2024-03-23T06:38:17;6.43;;;5.83;;
3541;SDS011;1785;47.388;8.538;2024-03-23T06:40:44;6.30;;;5.70;;
3541;SDS011;1785;47.388;8.538;2024-03-23T06:43:12;6.50;;;5.90;;
3541;SDS011;1785;47.388;8.538;2024-03-23T06:45:38;6.30;;;5.70;;
3541;SDS011;1785;47.388;8.538;2024-03-23T06:48:04;7.13;;;6.17;;
3541;SDS011;1785;47.388;8.538;2024-03-23T06:50:33;8.20;;;6.73;;
3541;SDS011;1785;47.388;8.538;2024-03-23T06:52:59;7.27;;;6.57;;
3541;SDS011;1785;47.388;8.538;2024-03-23T06:55:26;7.53;;;6.87;;
3541;SDS011;1785;47.388;8.538;2024-03-23T06:57:53;7.50;;;6.80;;
3541;SDS011;1785;47.388;8.538;2024-03-23T07:00:19;7.10;;;6.40;;
3541;SDS011;1785;47.388;8.538;2024-03-23T07:02:45;7.80;;;7.07;;
3541;SDS011;1785;47.388;8.538;2024-03-23T07:05:11;7.07;;;6.40;;
3541;SDS011;1785;47.388;8.538;2024-03-23T07:07:37;7.40;;;6.73;;
3541;SDS011;1785;47.388;8.538;2024-03-23T07:10:04;7.97;;;7.20;;
3541;SDS011;1785;47.388;8.538;2024-03-23T07:12:31;6.33;;;5.73;;
3541;SDS011;1785;47.388;8.538;2024-03-23T07:14:58;7.73;;;6.97;;
3541;SDS011;1785;47.388;8.538;2024-03-23T07:17:24;6.43;;;5.70;;
3541;SDS011;1785;47.388;8.538;2024-03-23T07:19:50;6.90;;;6.20;;
3541;SDS011;1785;47.388;8.538;2024-03-23T07:22:16;6.70;;;5.10;;
3541;SDS011;1785;47.388;8.538;2024-03-23T07:24:42;6.10;;;5.57;;
3541;SDS011;1785;47.388;8.538;2024-03-23T07:27:09;5.67;;;5.17;;
3541;SDS011;1785;47.388;8.538;2024-03-23T07:29:35;4.80;;;4.50;;
3541;SDS011;1785;47.388;8.538;2024-03-23T07:32:02;4.80;;;4.40;;
3541;SDS011;1785;47.388;8.538;2024-03-23T07:34:28;5.27;;;4.87;;
3541;SDS011;1785;47.388;8.538;2024-03-23T07:36:54;5.40;;;4.27;;
3541;SDS011;1785;47.388;8.538;2024-03-23T07:39:20;4.00;;;3.60;;
3541;SDS011;1785;47.388;8.538;2024-03-23T07:41:46;4.60;;;3.47;;
3541;SDS011;1785;47.388;8.538;2024-03-23T07:44:12;3.87;;;3.53;;
3541;SDS011;1785;47.388;8.538;2024-03-23T07:46:38;3.30;;;3.00;;
3541;SDS011;1785;47.388;8.538;2024-03-23T07:49:04;3.20;;;3.00;;
3541;SDS011;1785;47.388;8.538;2024-03-23T07:51:30;3.30;;;3.10;;
3541;SDS011;1785;47.388;8.538;2024-03-23T07:53:57;2.67;;;2.47;;
3541;SDS011;1785;47.388;8.538;2024-03-23T07:56:23;2.63;;;2.43;;
3541;SDS011;1785;47.388;8.538;2024-03-23T07:58:49;3.20;;;2.60;;
3541;SDS011;1785;47.388;8.538;2024-03-23T08:01:16;4.07;;;1.40;;
3541;SDS011;1785;47.388;8.538;2024-03-23T08:03:43;1.70;;;1.60;;
3541;SDS011;1785;47.388;8.538;2024-03-23T08:06:10;1.37;;;1.27;;
3541;SDS011;1785;47.388;8.538;2024-03-23T08:08:37;1.50;;;1.40;;
3541;SDS011;1785;47.388;8.538;2024-03-23T08:11:04;1.60;;;1.50;;
3541;SDS011;1785;47.388;8.538;2024-03-23T08:13:31;1.50;;;1.40;;
3541;SDS011;1785;47.388;8.538;2024-03-23T08:15:57;1.60;;;1.50;;
3541;SDS011;1785;47.388;8.538;2024-03-23T08:18:23;1.67;;;1.57;;
3541;SDS011;1785;47.388;8.538;2024-03-23T08:20:55;1.20;;;1.20;;
3541;SDS011;1785;47.388;8.538;2024-03-23T08:23:22;1.60;;;1.50;;
3541;SDS011;1785;47.388;8.538;2024-03-23T08:25:49;1.83;;;1.20;;
3541;SDS011;1785;47.388;8.538;2024-03-23T08:28:15;1.67;;;1.57;;
3541;SDS011;1785;47.388;8.538;2024-03-23T08:30:41;1.67;;;1.57;;
3541;SDS011;1785;47.388;8.538;2024-03-23T08:33:07;1.40;;;1.30;;
3541;SDS011;1785;47.388;8.538;2024-03-23T08:35:33;1.57;;;1.47;;
3541;SDS011;1785;47.388;8.538;2024-03-23T08:37:59;5.70;;;1.73;;
3541;SDS011;1785;47.388;8.538;2024-03-23T08:40:26;2.07;;;1.40;;
3541;SDS011;1785;47.388;8.538;2024-03-23T08:42:52;1.90;;;1.80;;
3541;SDS011;1785;47.388;8.538;2024-03-23T08:45:18;1.80;;;1.43;;
3541;SDS011;1785;47.388;8.538;2024-03-23T08:47:44;2.27;;;1.67;;
3541;SDS011;1785;47.388;8.538;2024-03-23T08:50:10;2.03;;;1.83;;
3541;SDS011;1785;47.388;8.538;2024-03-23T08:52:36;1.80;;;1.70;;
3541;SDS011;1785;47.388;8.538;2024-03-23T08:55:02;5.33;;;2.00;;
3541;SDS011;1785;47.388;8.538;2024-03-23T08:57:29;2.10;;;1.90;;
3541;SDS011;1785;47.388;8.538;2024-03-23T08:59:55;2.93;;;1.83;;
3541;SDS011;1785;47.388;8.538;2024-03-23T09:02:21;3.90;;;2.20;;
3541;SDS011;1785;47.388;8.538;2024-03-23T09:04:47;9.20;;;2.40;;
3541;SDS011;1785;47.388;8.538;2024-03-23T09:07:13;3.30;;;2.60;;
3541;SDS011;1785;47.388;8.538;2024-03-23T09:09:39;5.43;;;3.23;;
3541;SDS011;1785;47.388;8.538;2024-03-23T09:12:06;2.30;;;2.10;;
3541;SDS011;1785;47.388;8.538;2024-03-23T09:14:33;4.80;;;2.70;;
3541;SDS011;1785;47.388;8.538;2024-03-23T09:16:59;2.90;;;2.37;;
3541;SDS011;1785;47.388;8.538;2024-03-23T09:19:26;4.67;;;3.90;;
3541;SDS011;1785;47.388;8.538;2024-03-23T09:21:53;6.33;;;2.80;;
3541;SDS011;1785;47.388;8.538;2024-03-23T09:24:19;3.10;;;2.80;;
3541;SDS011;1785;47.388;8.538;2024-03-23T09:26:46;2.50;;;2.30;;
3541;SDS011;1785;47.388;8.538;2024-03-23T09:29:12;2.73;;;2.53;;
3541;SDS011;1785;47.388;8.538;2024-03-23T09:31:39;2.80;;;2.60;;
3541;SDS011;1785;47.388;8.538;2024-03-23T09:34:06;4.33;;;2.77;;
3541;SDS011;1785;47.388;8.538;2024-03-23T09:36:32;6.17;;;3.00;;
3541;SDS011;1785;47.388;8.538;2024-03-23T09:38:58;2.70;;;2.50;;
3541;SDS011;1785;47.388;8.538;2024-03-23T09:41:24;3.07;;;2.73;;
3541;SDS011;1785;47.388;8.538;2024-03-23T09:43:52;4.67;;;2.97;;
3541;SDS011;1785;47.388;8.538;2024-03-23T09:46:19;3.93;;;2.60;;
3541;SDS011;1785;47.388;8.538;2024-03-23T09:48:46;4.63;;;3.37;;
3541;SDS011;1785;47.388;8.538;2024-03-23T09:51:13;3.97;;;3.67;;
3541;SDS011;1785;47.388;8.538;2024-03-23T09:53:39;4.50;;;2.83;;
3541;SDS011;1785;47.388;8.538;2024-03-23T09:56:06;3.23;;;2.90;;
3541;SDS011;1785;47.388;8.538;2024-03-23T09:58:33;4.30;;;3.00;;
3541;SDS011;1785;47.388;8.538;2024-03-23T10:00:59;3.20;;;2.97;;
3541;SDS011;1785;47.388;8.538;2024-03-23T10:03:25;6.70;;;3.23;;
3541;SDS011;1785;47.388;8.538;2024-03-23T10:06:00;11.37;;;4.80;;
3541;SDS011;1785;47.388;8.538;2024-03-23T10:08:27;3.97;;;3.00;;
3541;SDS011;1785;47.388;8.538;2024-03-23T10:10:55;4.87;;;3.03;;
3541;SDS011;1785;47.388;8.538;2024-03-23T10:13:24;4.70;;;3.40;;
3541;SDS011;1785;47.388;8.538;2024-03-23T10:15:54;6.67;;;3.37;;
3541;SDS011;1785;47.388;8.538;2024-03-23T10:18:22;4.83;;;3.73;;
3541;SDS011;1785;47.388;8.538;2024-03-23T10:20:50;6.53;;;3.97;;
3541;SDS011;1785;47.388;8.538;2024-03-23T10:23:18;3.30;;;2.90;;
3541;SDS011;1785;47.388;8.538;2024-03-23T10:25:44;6.23;;;3.60;;
3541;SDS011;1785;47.388;8.538;2024-03-23T10:28:11;5.40;;;3.50;;
3541;SDS011;1785;47.388;8.538;2024-03-23T10:30:37;6.73;;;3.10;;
3541;SDS011;1785;47.388;8.538;2024-03-23T10:33:09;5.37;;;3.27;;
3541;SDS011;1785;47.388;8.538;2024-03-23T10:35:36;5.87;;;2.97;;
3541;SDS011;1785;47.388;8.538;2024-03-23T10:38:03;10.77;;;3.90;;
3541;SDS011;1785;47.388;8.538;2024-03-23T10:40:31;9.20;;;2.97;;
3541;SDS011;1785;47.388;8.538;2024-03-23T10:42:59;7.37;;;3.63;;
3541;SDS011;1785;47.388;8.538;2024-03-23T10:45:26;5.57;;;3.17;;
3541;SDS011;1785;47.388;8.538;2024-03-23T10:47:52;5.87;;;3.20;;
3541;SDS011;1785;47.388;8.538;2024-03-23T10:50:18;9.40;;;3.13;;
3541;SDS011;1785;47.388;8.538;2024-03-23T10:52:46;5.53;;;3.03;;
3541;SDS011;1785;47.388;8.538;2024-03-23T10:55:13;6.30;;;4.07;;
3541;SDS011;1785;47.388;8.538;2024-03-23T10:57:44;4.80;;;3.30;;
3541;SDS011;1785;47.388;8.538;2024-03-23T11:00:15;5.57;;;2.63;;
3541;SDS011;1785;47.388;8.538;2024-03-23T11:02:41;5.53;;;3.10;;
3541;SDS011;1785;47.388;8.538;2024-03-23T11:07:54;6.13;;;2.90;;
3541;SDS011;1785;47.388;8.538;2024-03-23T11:10:24;3.30;;;2.57;;
3541;SDS011;1785;47.388;8.538;2024-03-23T11:12:52;3.30;;;3.00;;
3541;SDS011;1785;47.388;8.538;2024-03-23T11:15:18;4.70;;;2.33;;
3541;SDS011;1785;47.388;8.538;2024-03-23T11:17:52;3.37;;;2.60;;
3541;SDS011;1785;47.388;8.538;2024-03-23T11:20:32;3.93;;;2.30;;
3541;SDS011;1785;47.388;8.538;2024-03-23T11:22:59;2.37;;;2.13;;
3541;SDS011;1785;47.388;8.538;2024-03-23T11:25:26;3.90;;;2.77;;
3541;SDS011;1785;47.388;8.538;2024-03-23T11:27:54;2.97;;;2.47;;
3541;SDS011;1785;47.388;8.538;2024-03-23T11:30:22;4.87;;;2.73;;
3541;SDS011;1785;47.388;8.538;2024-03-23T11:32:49;2.70;;;1.93;;
3541;SDS011;1785;47.388;8.538;2024-03-23T11:35:30;2.67;;;1.93;;
3541;SDS011;1785;47.388;8.538;2024-03-23T11:38:04;3.10;;;2.50;;
3541;SDS011;1785;47.388;8.538;2024-03-23T11:40:31;4.57;;;2.30;;
3541;SDS011;1785;47.388;8.538;2024-03-23T11:42:59;2.17;;;1.90;;
3541;SDS011;1785;47.388;8.538;2024-03-23T11:45:26;2.80;;;2.43;;
3541;SDS011;1785;47.388;8.538;2024-03-23T11:48:02;4.03;;;2.27;;
3541;SDS011;1785;47.388;8.538;2024-03-23T11:50:32;3.13;;;2.00;;
3541;SDS011;1785;47.388;8.538;2024-03-23T11:53:12;4.63;;;2.63;;
3541;SDS011;1785;47.388;8.538;2024-03-23T11:55:43;2.77;;;2.40;;
3541;SDS011;1785;47.388;8.538;2024-03-23T11:58:12;3.80;;;2.50;;
3541;SDS011;1785;47.388;8.538;2024-03-23T12:00:39;2.30;;;2.10;;
3541;SDS011;1785;47.388;8.538;2024-03-23T12:03:05;3.77;;;2.40;;
3541;SDS011;1785;47.388;8.538;2024-03-23T12:05:32;3.97;;;3.30;;
3541;SDS011;1785;47.388;8.538;2024-03-23T12:08:17;7.73;;;2.73;;
3541;SDS011;1785;47.388;8.538;2024-03-23T12:10:44;2.93;;;2.30;;
3541;SDS011;1785;47.388;8.538;2024-03-23T12:13:14;2.13;;;2.00;;
3541;SDS011;1785;47.388;8.538;2024-03-23T12:15:42;2.33;;;2.13;;
3541;SDS011;1785;47.388;8.538;2024-03-23T12:18:09;2.27;;;1.90;;
3541;SDS011;1785;47.388;8.538;2024-03-23T12:20:35;3.87;;;2.77;;
3541;SDS011;1785;47.388;8.538;2024-03-23T12:23:06;2.90;;;2.10;;
3541;SDS011;1785;47.388;8.538;2024-03-23T12:25:33;3.30;;;2.30;;
3541;SDS011;1785;47.388;8.538;2024-03-23T12:28:00;3.97;;;2.00;;
3541;SDS011;1785;47.388;8.538;2024-03-23T12:30:27;6.33;;;3.00;;
3541;SDS011;1785;47.388;8.538;2024-03-23T12:32:53;3.23;;;1.90;;
3541;SDS011;1785;47.388;8.538;2024-03-23T12:35:20;3.63;;;2.30;;
3541;SDS011;1785;47.388;8.538;2024-03-23T12:37:45;4.97;;;2.33;;
3541;SDS011;1785;47.388;8.538;2024-03-23T12:40:11;2.90;;;2.60;;
3541;SDS011;1785;47.388;8.538;2024-03-23T12:42:37;3.50;;;2.30;;
3541;SDS011;1785;47.388;8.538;2024-03-23T12:45:04;4.03;;;2.60;;
3541;SDS011;1785;47.388;8.538;2024-03-23T12:47:31;4.93;;;2.83;;
3541;SDS011;1785;47.388;8.538;2024-03-23T12:49:57;3.90;;;3.30;;
3541;SDS011;1785;47.388;8.538;2024-03-23T12:52:23;4.00;;;2.80;;
3541;SDS011;1785;47.388;8.538;2024-03-23T12:54:53;3.83;;;2.90;;
3541;SDS011;1785;47.388;8.538;2024-03-23T12:57:21;6.40;;;2.73;;
3541;SDS011;1785;47.388;8.538;2024-03-23T12:59:48;4.23;;;2.70;;
3541;SDS011;1785;47.388;8.538;2024-03-23T13:02:16;10.07;;;3.40;;
3541;SDS011;1785;47.388;8.538;2024-03-23T13:04:44;6.23;;;2.47;;
3541;SDS011;1785;47.388;8.538;2024-03-23T13:07:11;3.17;;;2.50;;
3541;SDS011;1785;47.388;8.538;2024-03-23T13:09:37;4.27;;;2.70;;
3541;SDS011;1785;47.388;8.538;2024-03-23T13:12:03;4.87;;;2.60;;
3541;SDS011;1785;47.388;8.538;2024-03-23T13:14:30;5.97;;;2.50;;
3541;SDS011;1785;47.388;8.538;2024-03-23T13:16:56;4.33;;;3.07;;
3541;SDS011;1785;47.388;8.538;2024-03-23T13:19:22;4.87;;;2.90;;
3541;SDS011;1785;47.388;8.538;2024-03-23T13:21:52;4.90;;;2.73;;
3541;SDS011;1785;47.388;8.538;2024-03-23T13:24:21;5.10;;;2.93;;
3541;SDS011;1785;47.388;8.538;2024-03-23T13:26:47;4.60;;;2.70;;
3541;SDS011;1785;47.388;8.538;2024-03-23T13:29:13;3.20;;;2.67;;
3541;SDS011;1785;47.388;8.538;2024-03-23T13:31:39;6.40;;;2.70;;
3541;SDS011;1785;47.388;8.538;2024-03-23T13:34:05;5.83;;;2.80;;
3541;SDS011;1785;47.388;8.538;2024-03-23T13:36:31;2.63;;;1.93;;
3541;SDS011;1785;47.388;8.538;2024-03-23T13:38:58;3.33;;;2.10;;
3541;SDS011;1785;47.388;8.538;2024-03-23T13:41:24;3.95;;;2.10;;
3541;SDS011;1785;47.388;8.538;2024-03-23T13:43:50;3.43;;;2.60;;
3541;SDS011;1785;47.388;8.538;2024-03-23T13:46:16;3.10;;;2.10;;
3541;SDS011;1785;47.388;8.538;2024-03-23T13:48:42;2.43;;;2.13;;
3541;SDS011;1785;47.388;8.538;2024-03-23T13:51:08;4.90;;;2.40;;
3541;SDS011;1785;47.388;8.538;2024-03-23T13:53:35;4.90;;;2.17;;
3541;SDS011;1785;47.388;8.538;2024-03-23T13:56:01;3.10;;;1.83;;
3541;SDS011;1785;47.388;8.538;2024-03-23T13:58:28;2.23;;;2.00;;
3541;SDS011;1785;47.388;8.538;2024-03-23T14:00:55;5.93;;;3.00;;
3541;SDS011;1785;47.388;8.538;2024-03-23T14:03:22;3.80;;;2.30;;
3541;SDS011;1785;47.388;8.538;2024-03-23T14:05:48;2.47;;;2.20;;
3541;SDS011;1785;47.388;8.538;2024-03-23T14:08:15;6.03;;;2.70;;
3541;SDS011;1785;47.388;8.538;2024-03-23T14:10:41;3.33;;;2.00;;
3541;SDS011;1785;47.388;8.538;2024-03-23T14:13:08;3.20;;;2.20;;
3541;SDS011;1785;47.388;8.538;2024-03-23T14:15:35;3.53;;;2.30;;
3541;SDS011;1785;47.388;8.538;2024-03-23T14:18:01;3.13;;;2.33;;
3541;SDS011;1785;47.388;8.538;2024-03-23T14:20:28;2.07;;;1.90;;
3541;SDS011;1785;47.388;8.538;2024-03-23T14:22:54;3.10;;;1.90;;
3541;SDS011;1785;47.388;8.538;2024-03-23T14:25:21;5.47;;;2.23;;
3541;SDS011;1785;47.388;8.538;2024-03-23T14:27:52;2.57;;;2.37;;
3541;SDS011;1785;47.388;8.538;2024-03-23T14:30:18;4.50;;;2.50;;
3541;SDS011;1785;47.388;8.538;2024-03-23T14:32:45;4.67;;;3.60;;
3541;SDS011;1785;47.388;8.538;2024-03-23T14:35:11;4.30;;;2.50;;
3541;SDS011;1785;47.388;8.538;2024-03-23T14:37:37;3.27;;;2.10;;
3541;SDS011;1785;47.388;8.538;2024-03-23T14:40:03;4.50;;;2.47;;
3541;SDS011;1785;47.388;8.538;2024-03-23T14:42:30;3.77;;;2.07;;
3541;SDS011;1785;47.388;8.538;2024-03-23T14:44:56;6.60;;;2.50;;
3541;SDS011;1785;47.388;8.538;2024-03-23T14:47:23;4.53;;;2.27;;
3541;SDS011;1785;47.388;8.538;2024-03-23T14:49:49;3.30;;;1.97;;
3541;SDS011;1785;47.388;8.538;2024-03-23T14:52:16;4.60;;;2.50;;
3541;SDS011;1785;47.388;8.538;2024-03-23T14:54:43;11.20;;;3.33;;
3541;SDS011;1785;47.388;8.538;2024-03-23T14:57:09;4.43;;;2.17;;
3541;SDS011;1785;47.388;8.538;2024-03-23T14:59:35;2.30;;;2.10;;
3541;SDS011;1785;47.388;8.538;2024-03-23T15:02:03;4.03;;;2.20;;
3541;SDS011;1785;47.388;8.538;2024-03-23T15:04:30;2.70;;;2.30;;
3541;SDS011;1785;47.388;8.538;2024-03-23T15:06:56;4.67;;;2.23;;
3541;SDS011;1785;47.388;8.538;2024-03-23T15:09:21;4.40;;;1.90;;
3541;SDS011;1785;47.388;8.538;2024-03-23T15:11:48;3.10;;;2.13;;
3541;SDS011;1785;47.388;8.538;2024-03-23T15:14:13;3.77;;;2.30;;
3541;SDS011;1785;47.388;8.538;2024-03-23T15:16:39;3.23;;;2.00;;
3541;SDS011;1785;47.388;8.538;2024-03-23T15:19:07;4.00;;;1.87;;
3541;SDS011;1785;47.388;8.538;2024-03-23T15:21:34;4.70;;;1.90;;
3541;SDS011;1785;47.388;8.538;2024-03-23T15:24:00;4.60;;;2.10;;
3541;SDS011;1785;47.388;8.538;2024-03-23T15:26:27;2.53;;;1.90;;
3541;SDS011;1785;47.388;8.538;2024-03-23T15:28:53;2.70;;;1.40;;
3541;SDS011;1785;47.388;8.538;2024-03-23T15:31:35;3.70;;;1.97;;
3541;SDS011;1785;47.388;8.538;2024-03-23T15:34:01;7.53;;;2.10;;
3541;SDS011;1785;47.388;8.538;2024-03-23T15:36:27;2.90;;;2.00;;
3541;SDS011;1785;47.388;8.538;2024-03-23T15:38:53;2.90;;;1.93;;
3541;SDS011;1785;47.388;8.538;2024-03-23T15:41:20;1.80;;;1.70;;
3541;SDS011;1785;47.388;8.538;2024-03-23T15:43:48;1.80;;;1.60;;
3541;SDS011;1785;47.388;8.538;2024-03-23T15:46:15;1.77;;;1.60;;
3541;SDS011;1785;47.388;8.538;2024-03-23T15:48:41;2.80;;;2.27;;
3541;SDS011;1785;47.388;8.538;2024-03-23T15:51:11;2.20;;;1.93;;
3541;SDS011;1785;47.388;8.538;2024-03-23T15:53:37;5.33;;;2.13;;
3541;SDS011;1785;47.388;8.538;2024-03-23T15:56:04;2.37;;;2.17;;
3541;SDS011;1785;47.388;8.538;2024-03-23T15:58:31;2.13;;;1.80;;
3541;SDS011;1785;47.388;8.538;2024-03-23T16:01:00;3.57;;;1.93;;
3541;SDS011;1785;47.388;8.538;2024-03-23T16:03:27;2.33;;;2.13;;
3541;SDS011;1785;47.388;8.538;2024-03-23T16:05:54;3.80;;;1.90;;